sensor_id;sensor_type;location;lat;lon;timestamp;temperature;humidity
75683;HTU21D;64295;44.772;39.872;2023-07-28T13:02:06;25.64;53.22
75683;HTU21D;64295;44.772;39.872;2023-07-28T13:04:32;25.74;52.43
75683;HTU21D;64295;44.772;39.872;2023-07-28T13:06:58;25.79;52.31
75683;HTU21D;64295;44.772;39.872;2023-07-28T13:09:24;25.81;51.95
75683;HTU21D;64295;44.772;39.872;2023-07-28T13:11:50;25.83;52.24
75683;HTU21D;64295;44.772;39.872;2023-07-28T13:14:16;25.89;52.15
75683;HTU21D;64295;44.772;39.872;2023-07-28T13:16:53;25.86;51.78
75683;HTU21D;64295;44.772;39.872;2023-07-28T13:20:01;25.79;52.07
75683;HTU21D;64295;44.772;39.872;2023-07-28T13:22:27;25.68;52.46
75683;HTU21D;64295;44.772;39.872;2023-07-28T13:24:53;25.62;52.61
75683;HTU21D;64295;44.772;39.872;2023-07-28T13:27:19;25.59;52.59
75683;HTU21D;64295;44.772;39.872;2023-07-28T13:29:46;25.51;52.80
75683;HTU21D;64295;44.772;39.872;2023-07-28T13:32:22;25.45;53.03
75683;HTU21D;64295;44.772;39.872;2023-07-28T13:34:48;25.35;53.32
75683;HTU21D;64295;44.772;39.872;2023-07-28T13:37:14;25.30;53.39
75683;HTU21D;64295;44.772;39.872;2023-07-28T13:39:42;25.19;53.16
75683;HTU21D;64295;44.772;39.872;2023-07-28T13:42:08;25.04;53.40
75683;HTU21D;64295;44.772;39.872;2023-07-28T13:44:34;24.91;53.56
75683;HTU21D;64295;44.772;39.872;2023-07-28T13:47:00;24.73;54.03
75683;HTU21D;64295;44.772;39.872;2023-07-28T13:49:27;24.53;54.70
75683;HTU21D;64295;44.772;39.872;2023-07-28T13:51:53;24.45;55.19
75683;HTU21D;64295;44.772;39.872;2023-07-28T13:54:18;24.56;55.25
75683;HTU21D;64295;44.772;39.872;2023-07-28T13:56:44;24.71;55.10
75683;HTU21D;64295;44.772;39.872;2023-07-28T13:59:10;24.79;54.80
75683;HTU21D;64295;44.772;39.872;2023-07-28T14:01:36;24.86;54.73
75683;HTU21D;64295;44.772;39.872;2023-07-28T14:04:02;24.91;54.66
75683;HTU21D;64295;44.772;39.872;2023-07-28T14:06:28;24.95;54.48
75683;HTU21D;64295;44.772;39.872;2023-07-28T14:08:54;24.93;54.38
75683;HTU21D;64295;44.772;39.872;2023-07-28T14:11:20;24.89;54.39
75683;HTU21D;64295;44.772;39.872;2023-07-28T14:13:46;24.90;54.24
75683;HTU21D;64295;44.772;39.872;2023-07-28T14:16:12;24.93;54.33
75683;HTU21D;64295;44.772;39.872;2023-07-28T14:18:38;25.04;53.95
75683;HTU21D;64295;44.772;39.872;2023-07-28T14:21:04;25.00;53.68
75683;HTU21D;64295;44.772;39.872;2023-07-28T14:23:30;24.94;53.59
75683;HTU21D;64295;44.772;39.872;2023-07-28T14:25:56;24.90;53.64
75683;HTU21D;64295;44.772;39.872;2023-07-28T14:28:23;24.85;53.32
75683;HTU21D;64295;44.772;39.872;2023-07-28T14:30:50;24.82;53.01
75683;HTU21D;64295;44.772;39.872;2023-07-28T14:33:18;24.79;53.12
75683;HTU21D;64295;44.772;39.872;2023-07-28T14:35:45;24.77;52.76
75683;HTU21D;64295;44.772;39.872;2023-07-28T14:38:11;24.73;52.70
75683;HTU21D;64295;44.772;39.872;2023-07-28T14:40:37;24.72;52.43
75683;HTU21D;64295;44.772;39.872;2023-07-28T14:43:08;24.65;52.54
75683;HTU21D;64295;44.772;39.872;2023-07-28T14:45:34;24.63;52.40
75683;HTU21D;64295;44.772;39.872;2023-07-28T14:48:01;24.65;52.28
75683;HTU21D;64295;44.772;39.872;2023-07-28T14:50:28;24.66;52.10
75683;HTU21D;64295;44.772;39.872;2023-07-28T14:52:58;24.65;52.06
75683;HTU21D;64295;44.772;39.872;2023-07-28T14:55:25;24.63;52.08
75683;HTU21D;64295;44.772;39.872;2023-07-28T14:57:51;24.62;52.16
75683;HTU21D;64295;44.772;39.872;2023-07-28T15:00:17;24.65;52.18
75683;HTU21D;64295;44.772;39.872;2023-07-28T15:02:43;24.65;52.20
75683;HTU21D;64295;44.772;39.872;2023-07-28T15:05:09;24.62;52.19
75683;HTU21D;64295;44.772;39.872;2023-07-28T15:07:35;24.59;52.39
75683;HTU21D;64295;44.772;39.872;2023-07-28T15:10:02;24.56;52.43
75683;HTU21D;64295;44.772;39.872;2023-07-28T15:12:29;24.51;52.67
75683;HTU21D;64295;44.772;39.872;2023-07-28T15:14:55;24.49;52.71
75683;HTU21D;64295;44.772;39.872;2023-07-28T15:17:21;24.41;52.92
75683;HTU21D;64295;44.772;39.872;2023-07-28T15:19:47;24.38;53.13
75683;HTU21D;64295;44.772;39.872;2023-07-28T15:22:13;24.42;53.23
75683;HTU21D;64295;44.772;39.872;2023-07-28T15:24:38;24.46;53.21
75683;HTU21D;64295;44.772;39.872;2023-07-28T15:27:04;24.45;53.23
75683;HTU21D;64295;44.772;39.872;2023-07-28T15:29:30;24.40;53.39
75683;HTU21D;64295;44.772;39.872;2023-07-28T15:31:56;24.33;53.45
75683;HTU21D;64295;44.772;39.872;2023-07-28T15:34:22;24.24;53.56
75683;HTU21D;64295;44.772;39.872;2023-07-28T15:36:48;24.18;53.48
75683;HTU21D;64295;44.772;39.872;2023-07-28T15:39:14;24.10;53.66
75683;HTU21D;64295;44.772;39.872;2023-07-28T15:41:40;24.05;53.78
75683;HTU21D;64295;44.772;39.872;2023-07-28T15:44:06;24.03;53.90
75683;HTU21D;64295;44.772;39.872;2023-07-28T15:46:32;24.00;53.96
75683;HTU21D;64295;44.772;39.872;2023-07-28T15:48:58;23.94;54.14
75683;HTU21D;64295;44.772;39.872;2023-07-28T15:51:24;23.87;54.30
75683;HTU21D;64295;44.772;39.872;2023-07-28T15:53:50;23.80;54.51
75683;HTU21D;64295;44.772;39.872;2023-07-28T15:56:16;23.74;54.68
75683;HTU21D;64295;44.772;39.872;2023-07-28T15:58:41;23.67;54.75
75683;HTU21D;64295;44.772;39.872;2023-07-28T16:01:07;23.57;54.90
75683;HTU21D;64295;44.772;39.872;2023-07-28T16:03:33;23.50;55.07
75683;HTU21D;64295;44.772;39.872;2023-07-28T16:05:59;23.41;55.27
75683;HTU21D;64295;44.772;39.872;2023-07-28T16:08:25;23.34;55.46
75683;HTU21D;64295;44.772;39.872;2023-07-28T16:10:51;23.28;55.66
75683;HTU21D;64295;44.772;39.872;2023-07-28T16:13:17;23.21;55.87
75683;HTU21D;64295;44.772;39.872;2023-07-28T16:15:43;23.13;56.14
75683;HTU21D;64295;44.772;39.872;2023-07-28T16:18:09;23.07;56.39
75683;HTU21D;64295;44.772;39.872;2023-07-28T16:20:36;23.00;56.61
75683;HTU21D;64295;44.772;39.872;2023-07-28T16:23:02;22.94;56.76
75683;HTU21D;64295;44.772;39.872;2023-07-28T16:25:28;22.87;57.13
75683;HTU21D;64295;44.772;39.872;2023-07-28T16:27:54;22.80;57.43
75683;HTU21D;64295;44.772;39.872;2023-07-28T16:30:20;22.73;57.56
75683;HTU21D;64295;44.772;39.872;2023-07-28T16:32:45;22.70;57.74
75683;HTU21D;64295;44.772;39.872;2023-07-28T16:35:11;22.64;58.02
75683;HTU21D;64295;44.772;39.872;2023-07-28T16:37:37;22.58;58.23
75683;HTU21D;64295;44.772;39.872;2023-07-28T16:40:03;22.54;58.37
75683;HTU21D;64295;44.772;39.872;2023-07-28T16:42:29;22.51;58.56
75683;HTU21D;64295;44.772;39.872;2023-07-28T16:44:55;22.49;58.76
75683;HTU21D;64295;44.772;39.872;2023-07-28T16:47:21;22.48;58.83
75683;HTU21D;64295;44.772;39.872;2023-07-28T16:49:47;22.42;58.98
75683;HTU21D;64295;44.772;39.872;2023-07-28T16:52:13;22.39;59.21
75683;HTU21D;64295;44.772;39.872;2023-07-28T16:54:39;22.34;59.26
75683;HTU21D;64295;44.772;39.872;2023-07-28T16:57:05;22.34;59.25
75683;HTU21D;64295;44.772;39.872;2023-07-28T16:59:31;22.32;59.57
75683;HTU21D;64295;44.772;39.872;2023-07-28T17:01:57;22.23;59.82
75683;HTU21D;64295;44.772;39.872;2023-07-28T17:04:23;22.19;60.09
75683;HTU21D;64295;44.772;39.872;2023-07-28T17:06:49;22.12;60.28
75683;HTU21D;64295;44.772;39.872;2023-07-28T17:09:14;22.08;60.48
75683;HTU21D;64295;44.772;39.872;2023-07-28T17:11:40;22.05;60.54
75683;HTU21D;64295;44.772;39.872;2023-07-28T17:14:06;22.02;60.91
75683;HTU21D;64295;44.772;39.872;2023-07-28T17:16:32;21.96;60.94
75683;HTU21D;64295;44.772;39.872;2023-07-28T17:18:58;21.94;61.19
75683;HTU21D;64295;44.772;39.872;2023-07-28T17:21:24;21.90;61.44
75683;HTU21D;64295;44.772;39.872;2023-07-28T17:23:50;21.88;61.38
75683;HTU21D;64295;44.772;39.872;2023-07-28T17:26:16;21.88;61.54
75683;HTU21D;64295;44.772;39.872;2023-07-28T17:28:41;21.85;61.63
75683;HTU21D;64295;44.772;39.872;2023-07-28T17:31:07;21.83;61.99
75683;HTU21D;64295;44.772;39.872;2023-07-28T17:33:33;21.82;62.00
75683;HTU21D;64295;44.772;39.872;2023-07-28T17:36:00;21.82;62.08
75683;HTU21D;64295;44.772;39.872;2023-07-28T17:38:26;21.82;62.02
75683;HTU21D;64295;44.772;39.872;2023-07-28T17:40:54;21.79;62.14
75683;HTU21D;64295;44.772;39.872;2023-07-28T17:43:20;21.78;62.19
75683;HTU21D;64295;44.772;39.872;2023-07-28T17:45:46;21.77;62.30
75683;HTU21D;64295;44.772;39.872;2023-07-28T17:48:14;21.73;62.54
75683;HTU21D;64295;44.772;39.872;2023-07-28T17:50:40;21.67;62.78
75683;HTU21D;64295;44.772;39.872;2023-07-28T17:53:06;21.64;62.82
75683;HTU21D;64295;44.772;39.872;2023-07-28T17:55:32;21.60;62.95
75683;HTU21D;64295;44.772;39.872;2023-07-28T17:57:58;21.57;63.08
75683;HTU21D;64295;44.772;39.872;2023-07-28T18:00:24;21.54;63.16
75683;HTU21D;64295;44.772;39.872;2023-07-28T18:02:50;21.55;63.09
75683;HTU21D;64295;44.772;39.872;2023-07-28T18:05:16;21.54;63.19
75683;HTU21D;64295;44.772;39.872;2023-07-28T18:07:43;21.48;63.50
75683;HTU21D;64295;44.772;39.872;2023-07-28T18:10:10;21.43;63.70
75683;HTU21D;64295;44.772;39.872;2023-07-28T18:12:36;21.39;63.80
75683;HTU21D;64295;44.772;39.872;2023-07-28T18:15:03;21.36;63.79
75683;HTU21D;64295;44.772;39.872;2023-07-28T18:17:30;21.34;63.92
75683;HTU21D;64295;44.772;39.872;2023-07-28T18:19:56;21.30;64.21
75683;HTU21D;64295;44.772;39.872;2023-07-28T18:22:22;21.25;64.33
75683;HTU21D;64295;44.772;39.872;2023-07-28T18:24:48;21.23;64.40
75683;HTU21D;64295;44.772;39.872;2023-07-28T18:27:14;21.21;64.39
75683;HTU21D;64295;44.772;39.872;2023-07-28T18:29:40;21.19;64.38
75683;HTU21D;64295;44.772;39.872;2023-07-28T18:32:06;21.17;64.34
75683;HTU21D;64295;44.772;39.872;2023-07-28T18:34:32;21.17;64.39
75683;HTU21D;64295;44.772;39.872;2023-07-28T18:36:58;21.11;64.73
75683;HTU21D;64295;44.772;39.872;2023-07-28T18:39:24;21.06;64.83
75683;HTU21D;64295;44.772;39.872;2023-07-28T18:41:50;21.05;65.04
75683;HTU21D;64295;44.772;39.872;2023-07-28T18:44:16;21.01;65.04
75683;HTU21D;64295;44.772;39.872;2023-07-28T18:46:42;20.96;65.05
75683;HTU21D;64295;44.772;39.872;2023-07-28T18:49:08;20.96;65.08
75683;HTU21D;64295;44.772;39.872;2023-07-28T18:51:35;20.92;65.10
75683;HTU21D;64295;44.772;39.872;2023-07-28T18:54:00;20.93;65.26
75683;HTU21D;64295;44.772;39.872;2023-07-28T18:56:26;20.91;65.25
75683;HTU21D;64295;44.772;39.872;2023-07-28T18:58:52;20.91;65.16
75683;HTU21D;64295;44.772;39.872;2023-07-28T19:01:18;20.92;65.13
75683;HTU21D;64295;44.772;39.872;2023-07-28T19:03:44;20.90;65.14
75683;HTU21D;64295;44.772;39.872;2023-07-28T19:06:10;20.92;65.09
75683;HTU21D;64295;44.772;39.872;2023-07-28T19:08:36;20.93;65.05
75683;HTU21D;64295;44.772;39.872;2023-07-28T19:11:02;20.96;65.07
75683;HTU21D;64295;44.772;39.872;2023-07-28T19:13:29;20.98;64.91
75683;HTU21D;64295;44.772;39.872;2023-07-28T19:15:57;21.03;64.75
75683;HTU21D;64295;44.772;39.872;2023-07-28T19:18:23;21.04;64.71
75683;HTU21D;64295;44.772;39.872;2023-07-28T19:20:49;21.06;64.63
75683;HTU21D;64295;44.772;39.872;2023-07-28T19:23:14;21.08;64.51
75683;HTU21D;64295;44.772;39.872;2023-07-28T19:25:40;21.13;64.36
75683;HTU21D;64295;44.772;39.872;2023-07-28T19:28:06;21.15;64.19
75683;HTU21D;64295;44.772;39.872;2023-07-28T19:30:32;21.17;64.00
75683;HTU21D;64295;44.772;39.872;2023-07-28T19:32:58;21.22;63.83
75683;HTU21D;64295;44.772;39.872;2023-07-28T19:35:24;21.20;63.72
75683;HTU21D;64295;44.772;39.872;2023-07-28T19:37:50;21.20;63.66
75683;HTU21D;64295;44.772;39.872;2023-07-28T19:40:16;21.19;63.63
75683;HTU21D;64295;44.772;39.872;2023-07-28T19:42:42;21.18;63.59
75683;HTU21D;64295;44.772;39.872;2023-07-28T19:45:08;21.17;63.55
75683;HTU21D;64295;44.772;39.872;2023-07-28T19:47:34;21.16;63.51
75683;HTU21D;64295;44.772;39.872;2023-07-28T19:50:04;21.13;63.55
75683;HTU21D;64295;44.772;39.872;2023-07-28T19:52:30;21.09;63.56
75683;HTU21D;64295;44.772;39.872;2023-07-28T19:54:56;21.07;63.55
75683;HTU21D;64295;44.772;39.872;2023-07-28T19:57:22;21.03;63.58
75683;HTU21D;64295;44.772;39.872;2023-07-28T19:59:48;20.99;63.65
75683;HTU21D;64295;44.772;39.872;2023-07-28T20:02:14;20.95;63.69
75683;HTU21D;64295;44.772;39.872;2023-07-28T20:04:39;20.94;63.75
75683;HTU21D;64295;44.772;39.872;2023-07-28T20:07:06;20.99;63.56
75683;HTU21D;64295;44.772;39.872;2023-07-28T20:09:34;21.00;63.48
75683;HTU21D;64295;44.772;39.872;2023-07-28T20:11:59;20.93;63.56
75683;HTU21D;64295;44.772;39.872;2023-07-28T20:14:26;20.85;63.75
75683;HTU21D;64295;44.772;39.872;2023-07-28T20:16:52;20.73;63.95
75683;HTU21D;64295;44.772;39.872;2023-07-28T20:19:18;20.70;63.99
75683;HTU21D;64295;44.772;39.872;2023-07-28T20:21:44;20.65;64.01
75683;HTU21D;64295;44.772;39.872;2023-07-28T20:24:10;20.62;64.04
75683;HTU21D;64295;44.772;39.872;2023-07-28T20:26:36;20.57;64.11
75683;HTU21D;64295;44.772;39.872;2023-07-28T20:29:02;20.53;64.16
75683;HTU21D;64295;44.772;39.872;2023-07-28T20:31:28;20.48;64.21
75683;HTU21D;64295;44.772;39.872;2023-07-28T20:33:55;20.48;64.14
75683;HTU21D;64295;44.772;39.872;2023-07-28T20:36:20;20.50;64.09
75683;HTU21D;64295;44.772;39.872;2023-07-28T20:38:49;20.48;64.09
75683;HTU21D;64295;44.772;39.872;2023-07-28T20:41:15;20.45;64.21
75683;HTU21D;64295;44.772;39.872;2023-07-28T20:43:44;20.42;64.25
75683;HTU21D;64295;44.772;39.872;2023-07-28T20:46:10;20.43;64.21
75683;HTU21D;64295;44.772;39.872;2023-07-28T20:48:36;20.43;64.16
75683;HTU21D;64295;44.772;39.872;2023-07-28T20:51:02;20.42;64.19
75683;HTU21D;64295;44.772;39.872;2023-07-28T20:53:28;20.42;64.21
75683;HTU21D;64295;44.772;39.872;2023-07-28T20:55:57;20.42;64.20
75683;HTU21D;64295;44.772;39.872;2023-07-28T20:58:24;20.44;64.24
75683;HTU21D;64295;44.772;39.872;2023-07-28T21:00:51;20.45;64.27
75683;HTU21D;64295;44.772;39.872;2023-07-28T21:03:18;20.46;64.26
75683;HTU21D;64295;44.772;39.872;2023-07-28T21:05:44;20.48;64.25
75683;HTU21D;64295;44.772;39.872;2023-07-28T21:08:10;20.50;64.29
75683;HTU21D;64295;44.772;39.872;2023-07-28T21:10:37;20.51;64.38
75683;HTU21D;64295;44.772;39.872;2023-07-28T21:13:04;20.51;64.40
75683;HTU21D;64295;44.772;39.872;2023-07-28T21:15:32;20.51;64.44
75683;HTU21D;64295;44.772;39.872;2023-07-28T21:18:00;20.55;64.39
75683;HTU21D;64295;44.772;39.872;2023-07-28T21:20:26;20.56;64.52
75683;HTU21D;64295;44.772;39.872;2023-07-28T21:22:52;20.57;64.61
75683;HTU21D;64295;44.772;39.872;2023-07-28T21:25:18;20.58;64.67
75683;HTU21D;64295;44.772;39.872;2023-07-28T21:27:44;20.58;64.69
75683;HTU21D;64295;44.772;39.872;2023-07-28T21:30:10;20.60;64.70
75683;HTU21D;64295;44.772;39.872;2023-07-28T21:32:36;20.61;64.76
75683;HTU21D;64295;44.772;39.872;2023-07-28T21:35:03;20.62;64.77
75683;HTU21D;64295;44.772;39.872;2023-07-28T21:37:29;20.62;64.94
75683;HTU21D;64295;44.772;39.872;2023-07-28T21:39:56;20.60;65.09
75683;HTU21D;64295;44.772;39.872;2023-07-28T21:42:22;20.60;65.34
75683;HTU21D;64295;44.772;39.872;2023-07-28T21:44:48;20.60;65.47
75683;HTU21D;64295;44.772;39.872;2023-07-28T21:47:14;20.59;65.50
75683;HTU21D;64295;44.772;39.872;2023-07-28T21:49:40;20.57;65.58
75683;HTU21D;64295;44.772;39.872;2023-07-28T21:52:06;20.55;65.73
75683;HTU21D;64295;44.772;39.872;2023-07-28T21:54:32;20.53;66.01
75683;HTU21D;64295;44.772;39.872;2023-07-28T21:56:58;20.51;66.14
75683;HTU21D;64295;44.772;39.872;2023-07-28T21:59:24;20.53;66.20
75683;HTU21D;64295;44.772;39.872;2023-07-28T22:01:50;20.54;66.11
75683;HTU21D;64295;44.772;39.872;2023-07-28T22:04:16;20.54;66.43
75683;HTU21D;64295;44.772;39.872;2023-07-28T22:06:43;20.51;66.75
75683;HTU21D;64295;44.772;39.872;2023-07-28T22:09:10;20.51;66.86
75683;HTU21D;64295;44.772;39.872;2023-07-28T22:11:36;20.51;66.95
75683;HTU21D;64295;44.772;39.872;2023-07-28T22:14:02;20.50;67.17
75683;HTU21D;64295;44.772;39.872;2023-07-28T22:16:27;20.48;67.31
75683;HTU21D;64295;44.772;39.872;2023-07-28T22:18:53;20.47;67.54
75683;HTU21D;64295;44.772;39.872;2023-07-28T22:21:19;20.42;67.84
75683;HTU21D;64295;44.772;39.872;2023-07-28T22:23:45;20.31;68.10
75683;HTU21D;64295;44.772;39.872;2023-07-28T22:26:11;20.18;68.62
75683;HTU21D;64295;44.772;39.872;2023-07-28T22:28:37;20.05;69.04
75683;HTU21D;64295;44.772;39.872;2023-07-28T22:31:03;19.99;69.42
75683;HTU21D;64295;44.772;39.872;2023-07-28T22:33:29;19.90;69.51
75683;HTU21D;64295;44.772;39.872;2023-07-28T22:35:55;19.83;69.91
75683;HTU21D;64295;44.772;39.872;2023-07-28T22:38:22;19.73;70.47
75683;HTU21D;64295;44.772;39.872;2023-07-28T22:40:48;19.66;70.57
75683;HTU21D;64295;44.772;39.872;2023-07-28T22:43:14;19.59;70.60
75683;HTU21D;64295;44.772;39.872;2023-07-28T22:45:40;19.57;70.57
75683;HTU21D;64295;44.772;39.872;2023-07-28T22:48:06;19.56;70.58
75683;HTU21D;64295;44.772;39.872;2023-07-28T22:50:32;19.53;70.57
75683;HTU21D;64295;44.772;39.872;2023-07-28T22:52:59;19.51;70.72
75683;HTU21D;64295;44.772;39.872;2023-07-28T22:55:25;19.46;71.06
75683;HTU21D;64295;44.772;39.872;2023-07-28T22:57:51;19.42;71.43
75683;HTU21D;64295;44.772;39.872;2023-07-28T23:00:17;19.40;71.67
75683;HTU21D;64295;44.772;39.872;2023-07-28T23:02:51;19.36;71.60
75683;HTU21D;64295;44.772;39.872;2023-07-28T23:05:17;19.32;71.65
75683;HTU21D;64295;44.772;39.872;2023-07-28T23:07:44;19.29;71.51
75683;HTU21D;64295;44.772;39.872;2023-07-28T23:10:10;19.28;71.80
75683;HTU21D;64295;44.772;39.872;2023-07-28T23:12:38;19.27;72.00
75683;HTU21D;64295;44.772;39.872;2023-07-28T23:15:04;19.27;71.74
75683;HTU21D;64295;44.772;39.872;2023-07-28T23:17:31;19.26;72.16
75683;HTU21D;64295;44.772;39.872;2023-07-28T23:19:57;19.16;72.38
75683;HTU21D;64295;44.772;39.872;2023-07-28T23:22:23;19.06;72.45
75683;HTU21D;64295;44.772;39.872;2023-07-28T23:24:49;18.99;72.80
75683;HTU21D;64295;44.772;39.872;2023-07-28T23:27:15;18.92;72.75
75683;HTU21D;64295;44.772;39.872;2023-07-28T23:29:41;18.87;73.00
75683;HTU21D;64295;44.772;39.872;2023-07-28T23:32:07;18.85;72.83
75683;HTU21D;64295;44.772;39.872;2023-07-28T23:34:33;18.84;72.86
75683;HTU21D;64295;44.772;39.872;2023-07-28T23:37:00;18.87;72.82
75683;HTU21D;64295;44.772;39.872;2023-07-28T23:39:26;18.89;72.64
75683;HTU21D;64295;44.772;39.872;2023-07-28T23:41:52;18.84;72.66
75683;HTU21D;64295;44.772;39.872;2023-07-28T23:44:17;18.82;72.64
75683;HTU21D;64295;44.772;39.872;2023-07-28T23:46:43;18.79;72.74
75683;HTU21D;64295;44.772;39.872;2023-07-28T23:49:09;18.76;72.73
75683;HTU21D;64295;44.772;39.872;2023-07-28T23:51:35;18.74;72.67
75683;HTU21D;64295;44.772;39.872;2023-07-28T23:54:01;18.74;72.80
75683;HTU21D;64295;44.772;39.872;2023-07-28T23:56:27;18.78;72.87
75683;HTU21D;64295;44.772;39.872;2023-07-28T23:58:53;18.82;72.63
